sensor_id;sensor_type;location;lat;lon;timestamp;P1;durP1;ratioP1;P2;durP2;ratioP2
59474;SDS011;45288;51.136;16.928;2023-02-15T00:00:30;35.17;;;20.55;;
59474;SDS011;45288;51.136;16.928;2023-02-15T00:02:56;35.97;;;20.67;;
59474;SDS011;45288;51.136;16.928;2023-02-15T00:05:22;36.28;;;21.33;;
59474;SDS011;45288;51.136;16.928;2023-02-15T00:07:47;35.07;;;21.00;;
59474;SDS011;45288;51.136;16.928;2023-02-15T00:10:13;34.50;;;20.00;;
59474;SDS011;45288;51.136;16.928;2023-02-15T00:12:39;36.90;;;20.65;;
59474;SDS011;45288;51.136;16.928;2023-02-15T00:15:05;34.90;;;20.85;;
59474;SDS011;45288;51.136;16.928;2023-02-15T00:17:30;35.33;;;21.40;;
59474;SDS011;45288;51.136;16.928;2023-02-15T00:19:56;34.50;;;20.60;;
59474;SDS011;45288;51.136;16.928;2023-02-15T00:22:21;33.90;;;20.43;;
59474;SDS011;45288;51.136;16.928;2023-02-15T00:24:47;34.87;;;20.57;;
59474;SDS011;45288;51.136;16.928;2023-02-15T00:27:13;34.65;;;20.42;;
59474;SDS011;45288;51.136;16.928;2023-02-15T00:29:38;36.83;;;20.63;;
59474;SDS011;45288;51.136;16.928;2023-02-15T00:32:04;33.35;;;20.13;;
59474;SDS011;45288;51.136;16.928;2023-02-15T00:34:31;34.38;;;20.35;;
59474;SDS011;45288;51.136;16.928;2023-02-15T00:36:57;34.40;;;19.90;;
59474;SDS011;45288;51.136;16.928;2023-02-15T00:39:22;33.60;;;20.10;;
59474;SDS011;45288;51.136;16.928;2023-02-15T00:41:49;33.75;;;19.40;;
59474;SDS011;45288;51.136;16.928;2023-02-15T00:44:14;33.40;;;20.00;;
59474;SDS011;45288;51.136;16.928;2023-02-15T00:46:40;34.60;;;19.23;;
59474;SDS011;45288;51.136;16.928;2023-02-15T00:49:08;32.30;;;19.77;;
59474;SDS011;45288;51.136;16.928;2023-02-15T00:51:34;38.13;;;21.38;;
59474;SDS011;45288;51.136;16.928;2023-02-15T00:54:00;33.72;;;20.02;;
59474;SDS011;45288;51.136;16.928;2023-02-15T00:56:25;32.40;;;19.87;;
59474;SDS011;45288;51.136;16.928;2023-02-15T00:58:53;34.67;;;20.08;;
59474;SDS011;45288;51.136;16.928;2023-02-15T01:01:20;34.92;;;20.10;;
59474;SDS011;45288;51.136;16.928;2023-02-15T01:03:46;34.33;;;20.10;;
59474;SDS011;45288;51.136;16.928;2023-02-15T01:06:12;33.73;;;20.00;;
59474;SDS011;45288;51.136;16.928;2023-02-15T01:08:38;35.13;;;19.93;;
59474;SDS011;45288;51.136;16.928;2023-02-15T01:11:11;34.28;;;19.50;;
59474;SDS011;45288;51.136;16.928;2023-02-15T01:13:37;33.78;;;19.58;;
59474;SDS011;45288;51.136;16.928;2023-02-15T01:16:04;35.90;;;20.67;;
59474;SDS011;45288;51.136;16.928;2023-02-15T01:18:30;34.50;;;19.27;;
59474;SDS011;45288;51.136;16.928;2023-02-15T01:20:55;34.65;;;20.58;;
59474;SDS011;45288;51.136;16.928;2023-02-15T01:23:21;38.88;;;21.20;;
59474;SDS011;45288;51.136;16.928;2023-02-15T01:25:47;35.17;;;19.67;;
59474;SDS011;45288;51.136;16.928;2023-02-15T01:28:12;36.83;;;21.27;;
59474;SDS011;45288;51.136;16.928;2023-02-15T01:30:38;36.40;;;20.70;;
59474;SDS011;45288;51.136;16.928;2023-02-15T01:33:04;37.03;;;20.90;;
59474;SDS011;45288;51.136;16.928;2023-02-15T01:35:30;37.05;;;21.35;;
59474;SDS011;45288;51.136;16.928;2023-02-15T01:37:56;37.60;;;21.17;;
59474;SDS011;45288;51.136;16.928;2023-02-15T01:40:21;38.03;;;21.00;;
59474;SDS011;45288;51.136;16.928;2023-02-15T01:42:54;38.13;;;21.02;;
59474;SDS011;45288;51.136;16.928;2023-02-15T01:45:27;39.40;;;21.02;;
59474;SDS011;45288;51.136;16.928;2023-02-15T01:50:36;38.53;;;21.80;;
59474;SDS011;45288;51.136;16.928;2023-02-15T01:53:08;40.78;;;21.88;;
59474;SDS011;45288;51.136;16.928;2023-02-15T01:55:39;39.88;;;21.75;;
59474;SDS011;45288;51.136;16.928;2023-02-15T01:58:05;38.70;;;21.93;;
59474;SDS011;45288;51.136;16.928;2023-02-15T02:00:32;41.80;;;22.87;;
59474;SDS011;45288;51.136;16.928;2023-02-15T02:02:58;40.53;;;22.15;;
59474;SDS011;45288;51.136;16.928;2023-02-15T02:05:24;39.83;;;22.58;;
59474;SDS011;45288;51.136;16.928;2023-02-15T02:07:50;43.50;;;23.17;;
59474;SDS011;45288;51.136;16.928;2023-02-15T02:10:18;39.70;;;22.63;;
59474;SDS011;45288;51.136;16.928;2023-02-15T02:12:45;42.83;;;23.50;;
59474;SDS011;45288;51.136;16.928;2023-02-15T02:15:11;42.50;;;23.02;;
59474;SDS011;45288;51.136;16.928;2023-02-15T02:18:11;42.70;;;23.17;;
59474;SDS011;45288;51.136;16.928;2023-02-15T02:23:10;43.95;;;23.65;;
59474;SDS011;45288;51.136;16.928;2023-02-15T02:46:44;40.75;;;23.63;;
59474;SDS011;45288;51.136;16.928;2023-02-15T02:49:11;41.72;;;24.20;;
59474;SDS011;45288;51.136;16.928;2023-02-15T02:51:37;47.00;;;25.52;;
59474;SDS011;45288;51.136;16.928;2023-02-15T02:54:04;45.60;;;24.58;;
59474;SDS011;45288;51.136;16.928;2023-02-15T02:56:36;46.13;;;25.52;;
59474;SDS011;45288;51.136;16.928;2023-02-15T03:01:37;42.30;;;23.87;;
59474;SDS011;45288;51.136;16.928;2023-02-15T03:04:08;44.85;;;24.77;;
59474;SDS011;45288;51.136;16.928;2023-02-15T03:06:46;44.15;;;23.70;;
59474;SDS011;45288;51.136;16.928;2023-02-15T03:09:17;43.78;;;24.40;;
59474;SDS011;45288;51.136;16.928;2023-02-15T03:11:44;40.88;;;23.55;;
59474;SDS011;45288;51.136;16.928;2023-02-15T03:14:10;44.05;;;23.80;;
59474;SDS011;45288;51.136;16.928;2023-02-15T03:16:36;43.20;;;23.77;;
59474;SDS011;45288;51.136;16.928;2023-02-15T03:19:05;41.85;;;23.42;;
59474;SDS011;45288;51.136;16.928;2023-02-15T03:21:38;42.05;;;24.50;;
59474;SDS011;45288;51.136;16.928;2023-02-15T03:24:10;42.85;;;23.58;;
59474;SDS011;45288;51.136;16.928;2023-02-15T03:26:37;40.78;;;23.30;;
59474;SDS011;45288;51.136;16.928;2023-02-15T03:29:04;41.60;;;24.05;;
59474;SDS011;45288;51.136;16.928;2023-02-15T03:31:32;45.78;;;25.58;;
59474;SDS011;45288;51.136;16.928;2023-02-15T03:34:00;45.05;;;25.52;;
59474;SDS011;45288;51.136;16.928;2023-02-15T03:38:59;44.47;;;25.13;;
59474;SDS011;45288;51.136;16.928;2023-02-15T03:41:27;46.30;;;24.40;;
59474;SDS011;45288;51.136;16.928;2023-02-15T03:48:51;45.17;;;24.73;;
59474;SDS011;45288;51.136;16.928;2023-02-15T03:51:18;42.88;;;24.52;;
59474;SDS011;45288;51.136;16.928;2023-02-15T03:54:16;44.08;;;24.52;;
59474;SDS011;45288;51.136;16.928;2023-02-15T03:57:12;46.13;;;25.08;;
59474;SDS011;45288;51.136;16.928;2023-02-15T03:59:57;46.47;;;25.00;;
59474;SDS011;45288;51.136;16.928;2023-02-15T04:05:26;45.42;;;25.55;;
59474;SDS011;45288;51.136;16.928;2023-02-15T04:07:52;47.87;;;26.30;;
59474;SDS011;45288;51.136;16.928;2023-02-15T04:10:17;45.20;;;25.38;;
59474;SDS011;45288;51.136;16.928;2023-02-15T04:13:02;47.03;;;26.30;;
59474;SDS011;45288;51.136;16.928;2023-02-15T04:15:28;44.33;;;25.30;;
59474;SDS011;45288;51.136;16.928;2023-02-15T04:18:12;45.45;;;25.38;;
59474;SDS011;45288;51.136;16.928;2023-02-15T04:20:37;48.50;;;25.92;;
59474;SDS011;45288;51.136;16.928;2023-02-15T04:23:21;46.08;;;26.08;;
59474;SDS011;45288;51.136;16.928;2023-02-15T04:26:06;47.25;;;26.48;;
59474;SDS011;45288;51.136;16.928;2023-02-15T04:28:31;43.95;;;24.98;;
59474;SDS011;45288;51.136;16.928;2023-02-15T04:30:57;49.17;;;26.53;;
59474;SDS011;45288;51.136;16.928;2023-02-15T04:33:22;48.38;;;26.63;;
59474;SDS011;45288;51.136;16.928;2023-02-15T04:35:48;51.30;;;27.43;;
59474;SDS011;45288;51.136;16.928;2023-02-15T04:38:14;46.47;;;26.23;;
59474;SDS011;45288;51.136;16.928;2023-02-15T04:40:39;47.22;;;26.63;;
59474;SDS011;45288;51.136;16.928;2023-02-15T04:43:05;46.13;;;26.47;;
59474;SDS011;45288;51.136;16.928;2023-02-15T04:45:30;43.88;;;26.00;;
59474;SDS011;45288;51.136;16.928;2023-02-15T04:47:56;47.47;;;26.50;;
59474;SDS011;45288;51.136;16.928;2023-02-15T04:50:22;48.08;;;26.10;;
59474;SDS011;45288;51.136;16.928;2023-02-15T04:52:47;44.17;;;25.77;;
59474;SDS011;45288;51.136;16.928;2023-02-15T04:55:13;49.60;;;27.30;;
59474;SDS011;45288;51.136;16.928;2023-02-15T04:57:39;48.87;;;27.00;;
59474;SDS011;45288;51.136;16.928;2023-02-15T05:00:05;46.88;;;27.17;;
59474;SDS011;45288;51.136;16.928;2023-02-15T05:02:31;51.35;;;27.50;;
59474;SDS011;45288;51.136;16.928;2023-02-15T05:04:56;50.43;;;28.43;;
59474;SDS011;45288;51.136;16.928;2023-02-15T05:07:22;50.53;;;28.38;;
59474;SDS011;45288;51.136;16.928;2023-02-15T05:09:48;51.15;;;27.88;;
59474;SDS011;45288;51.136;16.928;2023-02-15T05:12:13;52.10;;;28.97;;
59474;SDS011;45288;51.136;16.928;2023-02-15T05:14:39;51.22;;;28.73;;
59474;SDS011;45288;51.136;16.928;2023-02-15T05:17:04;48.37;;;27.63;;
59474;SDS011;45288;51.136;16.928;2023-02-15T05:19:30;50.20;;;28.02;;
59474;SDS011;45288;51.136;16.928;2023-02-15T05:21:56;48.90;;;28.08;;
59474;SDS011;45288;51.136;16.928;2023-02-15T05:24:22;49.92;;;27.38;;
59474;SDS011;45288;51.136;16.928;2023-02-15T05:27:07;51.72;;;29.00;;
59474;SDS011;45288;51.136;16.928;2023-02-15T05:29:52;49.43;;;27.90;;
59474;SDS011;45288;51.136;16.928;2023-02-15T05:32:17;48.53;;;27.87;;
59474;SDS011;45288;51.136;16.928;2023-02-15T05:34:43;49.63;;;27.27;;
59474;SDS011;45288;51.136;16.928;2023-02-15T05:37:08;51.90;;;27.77;;
59474;SDS011;45288;51.136;16.928;2023-02-15T05:39:34;48.50;;;28.15;;
59474;SDS011;45288;51.136;16.928;2023-02-15T05:42:00;49.85;;;28.05;;
59474;SDS011;45288;51.136;16.928;2023-02-15T05:44:26;45.47;;;26.70;;
59474;SDS011;45288;51.136;16.928;2023-02-15T05:46:51;48.73;;;27.67;;
59474;SDS011;45288;51.136;16.928;2023-02-15T05:49:17;46.33;;;26.15;;
59474;SDS011;45288;51.136;16.928;2023-02-15T05:51:43;48.90;;;27.30;;
59474;SDS011;45288;51.136;16.928;2023-02-15T05:54:08;50.33;;;28.20;;
59474;SDS011;45288;51.136;16.928;2023-02-15T05:56:34;48.50;;;27.77;;
59474;SDS011;45288;51.136;16.928;2023-02-15T05:59:00;48.70;;;26.95;;
59474;SDS011;45288;51.136;16.928;2023-02-15T06:01:26;50.45;;;27.70;;
59474;SDS011;45288;51.136;16.928;2023-02-15T06:03:51;53.03;;;27.57;;
59474;SDS011;45288;51.136;16.928;2023-02-15T06:06:17;49.35;;;27.42;;
59474;SDS011;45288;51.136;16.928;2023-02-15T06:08:43;49.05;;;27.45;;
59474;SDS011;45288;51.136;16.928;2023-02-15T06:11:09;52.60;;;28.07;;
59474;SDS011;45288;51.136;16.928;2023-02-15T06:13:34;50.37;;;27.13;;
59474;SDS011;45288;51.136;16.928;2023-02-15T06:16:00;49.30;;;27.27;;
59474;SDS011;45288;51.136;16.928;2023-02-15T06:18:26;49.88;;;27.75;;
59474;SDS011;45288;51.136;16.928;2023-02-15T06:20:52;50.43;;;28.23;;
59474;SDS011;45288;51.136;16.928;2023-02-15T06:23:18;49.20;;;26.87;;
59474;SDS011;45288;51.136;16.928;2023-02-15T06:25:46;48.45;;;27.33;;
59474;SDS011;45288;51.136;16.928;2023-02-15T06:28:12;48.80;;;26.88;;
59474;SDS011;45288;51.136;16.928;2023-02-15T06:30:38;50.88;;;27.77;;
59474;SDS011;45288;51.136;16.928;2023-02-15T06:33:04;51.78;;;27.83;;
59474;SDS011;45288;51.136;16.928;2023-02-15T06:35:30;51.63;;;28.37;;
59474;SDS011;45288;51.136;16.928;2023-02-15T06:37:57;50.23;;;28.03;;
59474;SDS011;45288;51.136;16.928;2023-02-15T06:40:23;51.73;;;28.67;;
59474;SDS011;45288;51.136;16.928;2023-02-15T06:42:48;49.77;;;27.57;;
59474;SDS011;45288;51.136;16.928;2023-02-15T06:45:14;48.58;;;28.13;;
59474;SDS011;45288;51.136;16.928;2023-02-15T06:47:40;52.87;;;28.27;;
59474;SDS011;45288;51.136;16.928;2023-02-15T06:50:06;50.70;;;27.80;;
59474;SDS011;45288;51.136;16.928;2023-02-15T06:52:32;51.17;;;29.48;;
59474;SDS011;45288;51.136;16.928;2023-02-15T06:54:57;48.87;;;27.90;;
59474;SDS011;45288;51.136;16.928;2023-02-15T06:57:23;50.30;;;28.90;;
59474;SDS011;45288;51.136;16.928;2023-02-15T06:59:49;55.00;;;29.48;;
59474;SDS011;45288;51.136;16.928;2023-02-15T07:02:15;48.80;;;27.83;;
59474;SDS011;45288;51.136;16.928;2023-02-15T07:04:40;50.72;;;28.02;;
59474;SDS011;45288;51.136;16.928;2023-02-15T07:07:09;50.10;;;28.13;;
59474;SDS011;45288;51.136;16.928;2023-02-15T07:09:35;51.42;;;28.15;;
59474;SDS011;45288;51.136;16.928;2023-02-15T07:12:02;51.25;;;28.88;;
59474;SDS011;45288;51.136;16.928;2023-02-15T07:14:46;51.15;;;29.83;;
59474;SDS011;45288;51.136;16.928;2023-02-15T07:17:12;49.35;;;29.17;;
59474;SDS011;45288;51.136;16.928;2023-02-15T07:19:37;54.75;;;28.27;;
59474;SDS011;45288;51.136;16.928;2023-02-15T07:22:03;52.70;;;30.23;;
59474;SDS011;45288;51.136;16.928;2023-02-15T07:24:30;53.45;;;30.10;;
59474;SDS011;45288;51.136;16.928;2023-02-15T07:26:56;52.85;;;29.88;;
59474;SDS011;45288;51.136;16.928;2023-02-15T07:29:28;54.70;;;30.08;;
59474;SDS011;45288;51.136;16.928;2023-02-15T07:32:08;55.35;;;30.85;;
59474;SDS011;45288;51.136;16.928;2023-02-15T07:34:53;50.67;;;29.85;;
59474;SDS011;45288;51.136;16.928;2023-02-15T07:37:33;53.33;;;29.35;;
59474;SDS011;45288;51.136;16.928;2023-02-15T07:40:19;54.20;;;29.90;;
59474;SDS011;45288;51.136;16.928;2023-02-15T07:42:58;51.42;;;29.77;;
59474;SDS011;45288;51.136;16.928;2023-02-15T07:45:43;50.03;;;29.10;;
59474;SDS011;45288;51.136;16.928;2023-02-15T07:48:23;47.00;;;27.70;;
59474;SDS011;45288;51.136;16.928;2023-02-15T07:51:15;47.03;;;26.48;;
59474;SDS011;45288;51.136;16.928;2023-02-15T07:53:48;45.22;;;25.67;;
59474;SDS011;45288;51.136;16.928;2023-02-15T07:56:40;41.35;;;24.80;;
59474;SDS011;45288;51.136;16.928;2023-02-15T07:59:13;42.90;;;25.08;;
59474;SDS011;45288;51.136;16.928;2023-02-15T08:02:12;46.00;;;25.52;;
59474;SDS011;45288;51.136;16.928;2023-02-15T08:04:44;40.40;;;24.40;;
59474;SDS011;45288;51.136;16.928;2023-02-15T08:07:36;40.83;;;25.03;;
59474;SDS011;45288;51.136;16.928;2023-02-15T08:10:09;43.37;;;25.27;;
59474;SDS011;45288;51.136;16.928;2023-02-15T08:13:21;44.92;;;25.92;;
59474;SDS011;45288;51.136;16.928;2023-02-15T08:15:54;42.63;;;25.10;;
59474;SDS011;45288;51.136;16.928;2023-02-15T08:18:46;41.97;;;25.38;;
59474;SDS011;45288;51.136;16.928;2023-02-15T08:21:19;41.97;;;25.42;;
59474;SDS011;45288;51.136;16.928;2023-02-15T08:24:06;44.00;;;25.48;;
59474;SDS011;45288;51.136;16.928;2023-02-15T08:26:32;41.67;;;25.47;;
59474;SDS011;45288;51.136;16.928;2023-02-15T08:29:20;40.17;;;24.00;;
59474;SDS011;45288;51.136;16.928;2023-02-15T08:31:48;43.72;;;25.60;;
59474;SDS011;45288;51.136;16.928;2023-02-15T08:34:15;44.13;;;25.38;;
59474;SDS011;45288;51.136;16.928;2023-02-15T08:36:42;39.47;;;24.80;;
59474;SDS011;45288;51.136;16.928;2023-02-15T08:39:07;42.43;;;25.83;;
59474;SDS011;45288;51.136;16.928;2023-02-15T08:41:35;41.75;;;24.83;;
59474;SDS011;45288;51.136;16.928;2023-02-15T08:44:02;45.08;;;26.05;;
59474;SDS011;45288;51.136;16.928;2023-02-15T08:46:28;41.60;;;24.83;;
59474;SDS011;45288;51.136;16.928;2023-02-15T08:48:54;40.58;;;24.88;;
59474;SDS011;45288;51.136;16.928;2023-02-15T08:51:21;39.92;;;24.17;;
59474;SDS011;45288;51.136;16.928;2023-02-15T08:53:48;40.88;;;25.75;;
59474;SDS011;45288;51.136;16.928;2023-02-15T08:56:14;41.58;;;25.67;;
59474;SDS011;45288;51.136;16.928;2023-02-15T08:58:40;43.30;;;24.92;;
59474;SDS011;45288;51.136;16.928;2023-02-15T09:01:13;41.00;;;25.13;;
59474;SDS011;45288;51.136;16.928;2023-02-15T09:03:43;41.95;;;24.10;;
59474;SDS011;45288;51.136;16.928;2023-02-15T09:06:09;43.15;;;24.35;;
59474;SDS011;45288;51.136;16.928;2023-02-15T09:08:35;41.73;;;25.63;;
59474;SDS011;45288;51.136;16.928;2023-02-15T09:11:04;40.95;;;25.13;;
59474;SDS011;45288;51.136;16.928;2023-02-15T09:13:30;41.03;;;25.50;;
59474;SDS011;45288;51.136;16.928;2023-02-15T09:16:02;40.53;;;25.38;;
59474;SDS011;45288;51.136;16.928;2023-02-15T09:18:29;41.42;;;25.33;;
59474;SDS011;45288;51.136;16.928;2023-02-15T09:20:55;41.38;;;25.45;;
59474;SDS011;45288;51.136;16.928;2023-02-15T09:23:21;40.00;;;25.05;;
59474;SDS011;45288;51.136;16.928;2023-02-15T09:25:46;39.97;;;24.90;;
59474;SDS011;45288;51.136;16.928;2023-02-15T09:28:12;40.27;;;25.47;;
59474;SDS011;45288;51.136;16.928;2023-02-15T09:30:38;44.95;;;26.33;;
59474;SDS011;45288;51.136;16.928;2023-02-15T09:33:03;42.97;;;25.97;;
59474;SDS011;45288;51.136;16.928;2023-02-15T09:35:29;43.47;;;25.67;;
59474;SDS011;45288;51.136;16.928;2023-02-15T09:37:55;44.40;;;25.77;;
59474;SDS011;45288;51.136;16.928;2023-02-15T09:40:21;46.93;;;27.77;;
59474;SDS011;45288;51.136;16.928;2023-02-15T09:42:49;46.40;;;26.75;;
59474;SDS011;45288;51.136;16.928;2023-02-15T09:53:18;45.10;;;27.08;;
59474;SDS011;45288;51.136;16.928;2023-02-15T10:01:12;41.22;;;24.95;;
59474;SDS011;45288;51.136;16.928;2023-02-15T10:03:50;37.93;;;24.50;;
59474;SDS011;45288;51.136;16.928;2023-02-15T10:06:26;42.90;;;25.23;;
59474;SDS011;45288;51.136;16.928;2023-02-15T10:17:05;36.53;;;22.38;;
59474;SDS011;45288;51.136;16.928;2023-02-15T10:27:13;38.67;;;22.45;;
59474;SDS011;45288;51.136;16.928;2023-02-15T10:29:46;38.22;;;23.55;;
59474;SDS011;45288;51.136;16.928;2023-02-15T10:32:17;39.80;;;23.75;;
59474;SDS011;45288;51.136;16.928;2023-02-15T10:42:37;35.58;;;22.02;;
59474;SDS011;45288;51.136;16.928;2023-02-15T10:53:15;36.28;;;22.92;;
59474;SDS011;45288;51.136;16.928;2023-02-15T10:55:53;34.80;;;22.35;;
59474;SDS011;45288;51.136;16.928;2023-02-15T11:01:26;34.43;;;22.17;;
59474;SDS011;45288;51.136;16.928;2023-02-15T11:06:53;33.08;;;20.50;;
59474;SDS011;45288;51.136;16.928;2023-02-15T11:09:22;31.63;;;20.85;;
59474;SDS011;45288;51.136;16.928;2023-02-15T11:11:51;39.35;;;23.75;;
59474;SDS011;45288;51.136;16.928;2023-02-15T11:14:20;38.27;;;22.60;;
59474;SDS011;45288;51.136;16.928;2023-02-15T11:16:50;37.00;;;23.20;;
59474;SDS011;45288;51.136;16.928;2023-02-15T11:21:43;39.97;;;24.40;;
59474;SDS011;45288;51.136;16.928;2023-02-15T11:24:14;40.42;;;23.73;;
59474;SDS011;45288;51.136;16.928;2023-02-15T11:27:05;40.13;;;23.67;;
59474;SDS011;45288;51.136;16.928;2023-02-15T11:30:04;37.40;;;23.83;;
59474;SDS011;45288;51.136;16.928;2023-02-15T11:32:41;34.72;;;22.33;;
59474;SDS011;45288;51.136;16.928;2023-02-15T11:38:16;35.15;;;22.52;;
59474;SDS011;45288;51.136;16.928;2023-02-15T11:40:44;36.40;;;22.83;;
59474;SDS011;45288;51.136;16.928;2023-02-15T11:45:49;42.57;;;24.57;;
59474;SDS011;45288;51.136;16.928;2023-02-15T11:48:16;40.75;;;25.85;;
59474;SDS011;45288;51.136;16.928;2023-02-15T11:50:43;40.67;;;25.27;;
59474;SDS011;45288;51.136;16.928;2023-02-15T11:53:16;39.07;;;24.50;;
59474;SDS011;45288;51.136;16.928;2023-02-15T11:55:43;38.05;;;24.20;;
59474;SDS011;45288;51.136;16.928;2023-02-15T11:58:15;37.30;;;24.20;;
59474;SDS011;45288;51.136;16.928;2023-02-15T12:00:42;40.03;;;24.43;;
59474;SDS011;45288;51.136;16.928;2023-02-15T12:03:13;39.25;;;24.38;;
59474;SDS011;45288;51.136;16.928;2023-02-15T12:05:40;38.22;;;24.95;;
59474;SDS011;45288;51.136;16.928;2023-02-15T12:08:15;39.92;;;24.98;;
59474;SDS011;45288;51.136;16.928;2023-02-15T12:10:50;39.45;;;25.38;;
59474;SDS011;45288;51.136;16.928;2023-02-15T12:13:23;37.00;;;24.50;;
59474;SDS011;45288;51.136;16.928;2023-02-15T12:15:53;35.95;;;23.23;;
59474;SDS011;45288;51.136;16.928;2023-02-15T12:18:33;36.72;;;22.55;;
59474;SDS011;45288;51.136;16.928;2023-02-15T12:21:06;39.30;;;23.60;;
59474;SDS011;45288;51.136;16.928;2023-02-15T12:23:32;37.78;;;23.67;;
59474;SDS011;45288;51.136;16.928;2023-02-15T12:25:59;39.57;;;22.63;;
59474;SDS011;45288;51.136;16.928;2023-02-15T12:30:50;37.55;;;22.70;;
59474;SDS011;45288;51.136;16.928;2023-02-15T12:33:30;36.47;;;23.27;;
59474;SDS011;45288;51.136;16.928;2023-02-15T12:36:01;36.70;;;22.55;;
59474;SDS011;45288;51.136;16.928;2023-02-15T12:38:37;38.83;;;23.98;;
59474;SDS011;45288;51.136;16.928;2023-02-15T12:41:04;36.67;;;22.85;;
59474;SDS011;45288;51.136;16.928;2023-02-15T12:43:37;39.38;;;23.92;;
59474;SDS011;45288;51.136;16.928;2023-02-15T12:48:44;36.55;;;22.98;;
59474;SDS011;45288;51.136;16.928;2023-02-15T12:51:12;35.92;;;22.02;;
59474;SDS011;45288;51.136;16.928;2023-02-15T12:53:39;37.27;;;22.50;;
59474;SDS011;45288;51.136;16.928;2023-02-15T12:56:06;35.80;;;22.45;;
59474;SDS011;45288;51.136;16.928;2023-02-15T12:58:35;36.20;;;22.00;;
59474;SDS011;45288;51.136;16.928;2023-02-15T13:01:12;35.63;;;21.97;;
59474;SDS011;45288;51.136;16.928;2023-02-15T13:06:24;39.45;;;23.33;;
59474;SDS011;45288;51.136;16.928;2023-02-15T13:08:50;42.30;;;22.77;;
59474;SDS011;45288;51.136;16.928;2023-02-15T13:11:35;37.22;;;22.33;;
59474;SDS011;45288;51.136;16.928;2023-02-15T13:14:13;36.20;;;22.30;;
59474;SDS011;45288;51.136;16.928;2023-02-15T13:16:41;38.07;;;23.23;;
59474;SDS011;45288;51.136;16.928;2023-02-15T13:19:20;40.58;;;22.92;;
59474;SDS011;45288;51.136;16.928;2023-02-15T13:21:50;36.97;;;22.92;;
59474;SDS011;45288;51.136;16.928;2023-02-15T13:24:27;35.47;;;22.58;;
59474;SDS011;45288;51.136;16.928;2023-02-15T13:26:55;38.15;;;22.23;;
59474;SDS011;45288;51.136;16.928;2023-02-15T13:29:22;33.77;;;21.80;;
59474;SDS011;45288;51.136;16.928;2023-02-15T13:31:49;36.10;;;22.27;;
59474;SDS011;45288;51.136;16.928;2023-02-15T13:34:17;37.60;;;22.73;;
59474;SDS011;45288;51.136;16.928;2023-02-15T13:39:15;35.70;;;22.90;;
59474;SDS011;45288;51.136;16.928;2023-02-15T14:00:18;34.60;;;22.77;;
59474;SDS011;45288;51.136;16.928;2023-02-15T14:18:35;37.42;;;23.35;;
59474;SDS011;45288;51.136;16.928;2023-02-15T14:21:07;40.47;;;25.23;;
59474;SDS011;45288;51.136;16.928;2023-02-15T14:23:43;34.72;;;22.80;;
59474;SDS011;45288;51.136;16.928;2023-02-15T14:26:15;35.25;;;22.98;;
59474;SDS011;45288;51.136;16.928;2023-02-15T14:31:11;35.83;;;23.77;;
59474;SDS011;45288;51.136;16.928;2023-02-15T14:33:41;37.47;;;24.13;;
59474;SDS011;45288;51.136;16.928;2023-02-15T14:36:09;35.63;;;23.45;;
59474;SDS011;45288;51.136;16.928;2023-02-15T14:41:04;37.95;;;23.90;;
59474;SDS011;45288;51.136;16.928;2023-02-15T14:48:50;37.25;;;23.77;;
59474;SDS011;45288;51.136;16.928;2023-02-15T14:54:01;38.28;;;23.95;;
59474;SDS011;45288;51.136;16.928;2023-02-15T14:56:27;38.23;;;24.13;;
59474;SDS011;45288;51.136;16.928;2023-02-15T15:01:29;37.55;;;23.45;;
59474;SDS011;45288;51.136;16.928;2023-02-15T15:04:06;36.90;;;23.40;;
59474;SDS011;45288;51.136;16.928;2023-02-15T15:06:35;36.53;;;23.80;;
59474;SDS011;45288;51.136;16.928;2023-02-15T15:09:12;35.88;;;24.00;;
59474;SDS011;45288;51.136;16.928;2023-02-15T15:11:42;36.78;;;23.98;;
59474;SDS011;45288;51.136;16.928;2023-02-15T15:14:09;36.83;;;23.58;;
59474;SDS011;45288;51.136;16.928;2023-02-15T15:19:02;42.20;;;24.13;;
59474;SDS011;45288;51.136;16.928;2023-02-15T15:29:42;37.65;;;23.33;;
59474;SDS011;45288;51.136;16.928;2023-02-15T15:32:08;39.20;;;23.30;;
59474;SDS011;45288;51.136;16.928;2023-02-15T15:34:44;40.08;;;23.70;;
59474;SDS011;45288;51.136;16.928;2023-02-15T15:42:32;37.05;;;23.33;;
59474;SDS011;45288;51.136;16.928;2023-02-15T15:47:38;38.00;;;23.58;;
59474;SDS011;45288;51.136;16.928;2023-02-15T15:50:11;36.88;;;23.05;;
59474;SDS011;45288;51.136;16.928;2023-02-15T15:52:38;37.22;;;23.60;;
59474;SDS011;45288;51.136;16.928;2023-02-15T15:55:07;37.83;;;23.75;;
59474;SDS011;45288;51.136;16.928;2023-02-15T15:57:39;40.58;;;24.60;;
59474;SDS011;45288;51.136;16.928;2023-02-15T16:02:53;39.22;;;23.95;;
59474;SDS011;45288;51.136;16.928;2023-02-15T16:05:19;39.90;;;23.63;;
59474;SDS011;45288;51.136;16.928;2023-02-15T16:07:45;40.83;;;24.23;;
59474;SDS011;45288;51.136;16.928;2023-02-15T16:10:24;40.60;;;24.05;;
59474;SDS011;45288;51.136;16.928;2023-02-15T16:12:50;40.95;;;24.48;;
59474;SDS011;45288;51.136;16.928;2023-02-15T16:15:17;40.63;;;24.17;;
59474;SDS011;45288;51.136;16.928;2023-02-15T16:17:45;39.08;;;23.67;;
59474;SDS011;45288;51.136;16.928;2023-02-15T16:20:34;39.40;;;24.95;;
59474;SDS011;45288;51.136;16.928;2023-02-15T16:26:05;41.47;;;24.07;;
59474;SDS011;45288;51.136;16.928;2023-02-15T16:28:34;44.35;;;24.15;;
59474;SDS011;45288;51.136;16.928;2023-02-15T16:31:10;38.63;;;23.80;;
59474;SDS011;45288;51.136;16.928;2023-02-15T16:33:37;41.17;;;24.90;;
59474;SDS011;45288;51.136;16.928;2023-02-15T16:36:04;43.97;;;24.80;;
59474;SDS011;45288;51.136;16.928;2023-02-15T16:41:08;42.33;;;25.17;;
59474;SDS011;45288;51.136;16.928;2023-02-15T16:43:35;42.03;;;25.27;;
59474;SDS011;45288;51.136;16.928;2023-02-15T16:46:06;43.53;;;24.75;;
59474;SDS011;45288;51.136;16.928;2023-02-15T16:48:32;44.15;;;25.10;;
59474;SDS011;45288;51.136;16.928;2023-02-15T16:50:59;40.15;;;25.38;;
59474;SDS011;45288;51.136;16.928;2023-02-15T16:53:34;44.63;;;26.55;;
59474;SDS011;45288;51.136;16.928;2023-02-15T16:56:02;42.00;;;25.05;;
59474;SDS011;45288;51.136;16.928;2023-02-15T16:58:30;44.42;;;25.70;;
59474;SDS011;45288;51.136;16.928;2023-02-15T17:00:57;43.77;;;25.70;;
59474;SDS011;45288;51.136;16.928;2023-02-15T17:03:23;45.65;;;26.15;;
59474;SDS011;45288;51.136;16.928;2023-02-15T17:05:51;48.80;;;26.73;;
59474;SDS011;45288;51.136;16.928;2023-02-15T17:10:44;45.53;;;26.30;;
59474;SDS011;45288;51.136;16.928;2023-02-15T17:13:11;45.95;;;25.23;;
59474;SDS011;45288;51.136;16.928;2023-02-15T17:15:38;47.95;;;26.40;;
59474;SDS011;45288;51.136;16.928;2023-02-15T17:18:12;46.90;;;26.98;;
59474;SDS011;45288;51.136;16.928;2023-02-15T17:20:40;49.22;;;27.70;;
59474;SDS011;45288;51.136;16.928;2023-02-15T17:23:17;50.03;;;29.40;;
59474;SDS011;45288;51.136;16.928;2023-02-15T17:25:44;53.70;;;29.08;;
59474;SDS011;45288;51.136;16.928;2023-02-15T17:28:17;54.33;;;28.27;;
59474;SDS011;45288;51.136;16.928;2023-02-15T17:30:44;47.67;;;26.92;;